New Castle, VA (24127)

4:29 AM EDT on October 24, 2014 (GMT -0400)
Craig County, Va | Change Station
CLOSE
Current Station
Personal Weather Station
Location: New Castle, VA
Elevation: 1440 ft
Nearby Weather Stations

Elev 1440 ft 37.45 °N, 80.11 °W | Updated 2 seconds ago

Partly Cloudy
Partly Cloudy
40.5 °F
Feels Like 40 °F
N
2.0
Wind Variable Wind from SSE
Gusts 2.0 mph

Today
High -- | Low -- °F
--% Chance of Precip.
Yesterday
High -- | Low -- °F
Precip. -- in
7:37 AM 6:31 PM
New Moon, 0% visible
Pressure 30.07 in
Visibility 10.0 miles
Clouds Clear
Windchill 40 °F
Dew Point 39 °F
Humidity 95%
Rainfall 0.00 in
Snow Depth Not available.
UV 0 out of 12
Pollen 2.00 out of 12
Ozone Good
PM2.5 Good
Flu Activity Local Activity
METAR KROA 240754Z 27008KT 10SM CLR 07/04 A3008 RMK AO2 SLP182 T00720039

More Conditions Fewer Conditions

Pressure 30.07 in
Visibility 10.0 miles
Clouds Clear
Windchill 40 °F
Dew Point 39 °F
Humidity 95%
Rainfall 0.00 in
Snow Depth Not available.
UV 0 out of 12
Pollen 2.00 out of 12
Ozone Good
PM2.5 Good
Flu Activity Local Activity
METAR KROA 240754Z 27008KT 10SM CLR 07/04 A3008 RMK AO2 SLP182 T00720039

More Conditions Fewer Conditions

10-Day Weather Forecast

Almanac

Astronomy

Oct. 24, 2014 Rise Set
Actual Time 7:37 AM EDT 6:31 PM EDT
Civil Twilight 7:10 AM EDT 6:58 PM EDT
Nautical Twilight 6:39 AM EDT 7:28 PM EDT
Astronomical Twilight 6:09 AM EDT 7:58 PM EDT
Moon 8:14 AM EDT 7:11 PM EDT
Length of Visible Light 11h 47m
Length of Day
10h 54m
Tomorrow will be 2m 12s shorter.
New Moon, 0% of the Moon is Illuminated
Today
New Moon
Oct 30
First Quarter
Nov 6
Full
Nov 14
Last Quarter
Nov 22
New

Today's Extremes

State Highs State Lows

Community

WunderPhotos

Upload Photos

1,764,511 photos uploaded!

WunderBlogs® & News

Nearby

Air Quality

  Air Quality AQ Index Pollutant
Yesterday Good
OZONE
Yesterday Good
PM2.5
Current Good
PM2.5
Current Good
OZONE
Friday Good
PM2.5

Snow Depth

Station Depth Elevation
No new snow has been reported.

Earthquake Activity

City Distance Mag. Time & Date
No recent earthquake activity has been reported nearby.
Minimum magnitude displayed is 2.5.

Coastal Water Temperatures

Place Temperature
No Stations Reporting

Nearby Weather Stations